sensor_id;sensor_type;location;lat;lon;timestamp;temperature;humidity
25923;DHT22;13725;51.170;4.442;2023-07-09T00:01:44;24.70;99.90
25923;DHT22;13725;51.170;4.442;2023-07-09T00:04:11;24.60;99.90
25923;DHT22;13725;51.170;4.442;2023-07-09T00:06:37;24.60;99.90
25923;DHT22;13725;51.170;4.442;2023-07-09T00:09:04;24.60;99.90
25923;DHT22;13725;51.170;4.442;2023-07-09T00:11:30;24.60;99.90
25923;DHT22;13725;51.170;4.442;2023-07-09T00:13:56;24.50;99.90
25923;DHT22;13725;51.170;4.442;2023-07-09T00:16:24;24.50;99.90
25923;DHT22;13725;51.170;4.442;2023-07-09T00:18:51;24.50;99.90
25923;DHT22;13725;51.170;4.442;2023-07-09T00:21:18;24.50;99.90
25923;DHT22;13725;51.170;4.442;2023-07-09T00:23:44;24.50;99.90
25923;DHT22;13725;51.170;4.442;2023-07-09T00:26:12;24.50;99.90
25923;DHT22;13725;51.170;4.442;2023-07-09T00:28:43;24.40;99.90
25923;DHT22;13725;51.170;4.442;2023-07-09T00:31:14;24.40;99.90
25923;DHT22;13725;51.170;4.442;2023-07-09T00:33:44;24.40;99.90
25923;DHT22;13725;51.170;4.442;2023-07-09T00:36:22;24.30;99.90
25923;DHT22;13725;51.170;4.442;2023-07-09T00:38:51;24.30;99.90
25923;DHT22;13725;51.170;4.442;2023-07-09T00:41:22;24.30;99.90
25923;DHT22;13725;51.170;4.442;2023-07-09T00:43:51;24.30;99.90
25923;DHT22;13725;51.170;4.442;2023-07-09T00:48:57;24.20;99.90
25923;DHT22;13725;51.170;4.442;2023-07-09T00:51:26;24.20;99.90
25923;DHT22;13725;51.170;4.442;2023-07-09T00:53:57;24.20;99.90
25923;DHT22;13725;51.170;4.442;2023-07-09T00:56:32;24.10;99.90
25923;DHT22;13725;51.170;4.442;2023-07-09T00:59:01;24.10;99.90
25923;DHT22;13725;51.170;4.442;2023-07-09T01:01:31;24.10;99.90
25923;DHT22;13725;51.170;4.442;2023-07-09T01:03:59;24.10;99.90
25923;DHT22;13725;51.170;4.442;2023-07-09T01:06:33;24.10;99.90
25923;DHT22;13725;51.170;4.442;2023-07-09T01:09:02;24.00;99.90
25923;DHT22;13725;51.170;4.442;2023-07-09T01:11:28;24.00;99.90
25923;DHT22;13725;51.170;4.442;2023-07-09T01:14:02;24.00;99.90
25923;DHT22;13725;51.170;4.442;2023-07-09T01:16:31;24.00;99.90
25923;DHT22;13725;51.170;4.442;2023-07-09T01:18:57;23.90;99.90
25923;DHT22;13725;51.170;4.442;2023-07-09T01:21:24;24.00;99.90
25923;DHT22;13725;51.170;4.442;2023-07-09T01:23:50;23.90;99.90
25923;DHT22;13725;51.170;4.442;2023-07-09T01:26:24;23.90;99.90
25923;DHT22;13725;51.170;4.442;2023-07-09T01:28:52;23.90;99.90
25923;DHT22;13725;51.170;4.442;2023-07-09T01:31:18;23.90;99.90
25923;DHT22;13725;51.170;4.442;2023-07-09T01:33:46;23.80;99.90
25923;DHT22;13725;51.170;4.442;2023-07-09T01:36:17;23.80;99.90
25923;DHT22;13725;51.170;4.442;2023-07-09T01:38:50;23.80;99.90
25923;DHT22;13725;51.170;4.442;2023-07-09T01:41:16;23.80;99.90
25923;DHT22;13725;51.170;4.442;2023-07-09T01:43:44;23.80;99.90
25923;DHT22;13725;51.170;4.442;2023-07-09T01:46:11;23.70;99.90
25923;DHT22;13725;51.170;4.442;2023-07-09T01:48:41;23.70;99.90
25923;DHT22;13725;51.170;4.442;2023-07-09T01:51:10;23.70;99.90
25923;DHT22;13725;51.170;4.442;2023-07-09T01:53:37;23.60;99.90
25923;DHT22;13725;51.170;4.442;2023-07-09T01:56:07;23.60;99.90
25923;DHT22;13725;51.170;4.442;2023-07-09T01:58:33;23.60;99.90
25923;DHT22;13725;51.170;4.442;2023-07-09T02:00:59;23.60;99.90
25923;DHT22;13725;51.170;4.442;2023-07-09T02:03:26;23.60;99.90
25923;DHT22;13725;51.170;4.442;2023-07-09T02:05:55;23.60;99.90
25923;DHT22;13725;51.170;4.442;2023-07-09T02:08:21;23.60;99.90
25923;DHT22;13725;51.170;4.442;2023-07-09T02:10:50;23.60;99.90
25923;DHT22;13725;51.170;4.442;2023-07-09T02:13:16;23.50;99.90
25923;DHT22;13725;51.170;4.442;2023-07-09T02:15:43;23.50;99.90
25923;DHT22;13725;51.170;4.442;2023-07-09T02:18:14;23.50;99.90
25923;DHT22;13725;51.170;4.442;2023-07-09T02:20:40;23.50;99.90
25923;DHT22;13725;51.170;4.442;2023-07-09T02:23:07;23.50;99.90
25923;DHT22;13725;51.170;4.442;2023-07-09T02:25:33;23.40;99.90
25923;DHT22;13725;51.170;4.442;2023-07-09T02:27:59;23.40;99.90
25923;DHT22;13725;51.170;4.442;2023-07-09T02:30:25;23.40;99.90
25923;DHT22;13725;51.170;4.442;2023-07-09T02:32:51;23.30;99.90
25923;DHT22;13725;51.170;4.442;2023-07-09T02:35:20;23.30;99.90
25923;DHT22;13725;51.170;4.442;2023-07-09T02:37:46;23.30;99.90
25923;DHT22;13725;51.170;4.442;2023-07-09T02:40:12;23.30;99.90
25923;DHT22;13725;51.170;4.442;2023-07-09T02:42:39;23.30;99.90
25923;DHT22;13725;51.170;4.442;2023-07-09T02:45:05;23.30;99.90
25923;DHT22;13725;51.170;4.442;2023-07-09T02:47:32;23.30;99.90
25923;DHT22;13725;51.170;4.442;2023-07-09T02:49:59;23.30;99.90
25923;DHT22;13725;51.170;4.442;2023-07-09T02:52:25;23.30;99.90
25923;DHT22;13725;51.170;4.442;2023-07-09T02:54:52;23.30;99.90
25923;DHT22;13725;51.170;4.442;2023-07-09T02:57:18;23.30;99.90
25923;DHT22;13725;51.170;4.442;2023-07-09T02:59:44;23.30;99.90
25923;DHT22;13725;51.170;4.442;2023-07-09T03:02:10;23.30;99.90
25923;DHT22;13725;51.170;4.442;2023-07-09T03:04:36;23.20;99.90
25923;DHT22;13725;51.170;4.442;2023-07-09T03:07:01;23.20;99.90
25923;DHT22;13725;51.170;4.442;2023-07-09T03:09:29;23.20;99.90
25923;DHT22;13725;51.170;4.442;2023-07-09T03:11:55;23.20;99.90
25923;DHT22;13725;51.170;4.442;2023-07-09T03:14:21;23.20;99.90
25923;DHT22;13725;51.170;4.442;2023-07-09T03:16:48;23.20;99.90
25923;DHT22;13725;51.170;4.442;2023-07-09T03:19:14;23.20;99.90
25923;DHT22;13725;51.170;4.442;2023-07-09T03:21:40;23.20;99.90
25923;DHT22;13725;51.170;4.442;2023-07-09T03:24:06;23.20;99.90
25923;DHT22;13725;51.170;4.442;2023-07-09T03:26:34;23.10;99.90
25923;DHT22;13725;51.170;4.442;2023-07-09T03:28:59;23.10;99.90
25923;DHT22;13725;51.170;4.442;2023-07-09T03:31:26;23.10;99.90
25923;DHT22;13725;51.170;4.442;2023-07-09T03:33:52;23.00;99.90
25923;DHT22;13725;51.170;4.442;2023-07-09T03:36:19;23.00;99.90
25923;DHT22;13725;51.170;4.442;2023-07-09T03:38:45;23.00;99.90
25923;DHT22;13725;51.170;4.442;2023-07-09T03:41:11;23.00;99.90
25923;DHT22;13725;51.170;4.442;2023-07-09T03:43:37;23.00;99.90
25923;DHT22;13725;51.170;4.442;2023-07-09T03:46:03;23.00;99.90
25923;DHT22;13725;51.170;4.442;2023-07-09T03:48:29;23.00;99.90
25923;DHT22;13725;51.170;4.442;2023-07-09T03:50:54;23.00;99.90
25923;DHT22;13725;51.170;4.442;2023-07-09T03:53:20;23.00;99.90
25923;DHT22;13725;51.170;4.442;2023-07-09T03:55:51;22.90;99.90
25923;DHT22;13725;51.170;4.442;2023-07-09T03:58:17;23.00;99.90
25923;DHT22;13725;51.170;4.442;2023-07-09T04:00:42;23.00;99.90
25923;DHT22;13725;51.170;4.442;2023-07-09T04:03:08;23.00;99.90
25923;DHT22;13725;51.170;4.442;2023-07-09T04:05:34;23.00;99.90
25923;DHT22;13725;51.170;4.442;2023-07-09T04:08:00;23.00;99.90
25923;DHT22;13725;51.170;4.442;2023-07-09T04:10:25;23.00;99.90
25923;DHT22;13725;51.170;4.442;2023-07-09T04:12:51;23.00;99.90
25923;DHT22;13725;51.170;4.442;2023-07-09T04:15:17;23.00;99.90
25923;DHT22;13725;51.170;4.442;2023-07-09T04:17:43;23.00;99.90
25923;DHT22;13725;51.170;4.442;2023-07-09T04:20:09;23.00;99.90
25923;DHT22;13725;51.170;4.442;2023-07-09T04:22:36;23.00;99.90
25923;DHT22;13725;51.170;4.442;2023-07-09T04:25:03;23.00;99.90
25923;DHT22;13725;51.170;4.442;2023-07-09T04:27:30;23.10;99.90
25923;DHT22;13725;51.170;4.442;2023-07-09T04:29:56;23.10;99.90
25923;DHT22;13725;51.170;4.442;2023-07-09T04:32:22;23.10;99.90
25923;DHT22;13725;51.170;4.442;2023-07-09T04:34:48;23.20;99.90
25923;DHT22;13725;51.170;4.442;2023-07-09T04:37:14;23.20;99.90
25923;DHT22;13725;51.170;4.442;2023-07-09T04:39:43;23.30;99.90
25923;DHT22;13725;51.170;4.442;2023-07-09T04:42:14;23.40;99.90
25923;DHT22;13725;51.170;4.442;2023-07-09T04:44:40;23.40;99.90
25923;DHT22;13725;51.170;4.442;2023-07-09T04:47:06;23.50;99.90
25923;DHT22;13725;51.170;4.442;2023-07-09T04:49:33;23.60;99.90
25923;DHT22;13725;51.170;4.442;2023-07-09T04:51:59;23.70;99.90
25923;DHT22;13725;51.170;4.442;2023-07-09T04:54:27;23.80;99.90
25923;DHT22;13725;51.170;4.442;2023-07-09T04:56:53;23.70;99.90
25923;DHT22;13725;51.170;4.442;2023-07-09T04:59:19;23.90;99.90
25923;DHT22;13725;51.170;4.442;2023-07-09T05:01:46;23.90;99.90
25923;DHT22;13725;51.170;4.442;2023-07-09T05:04:11;24.10;99.90
25923;DHT22;13725;51.170;4.442;2023-07-09T05:06:37;24.20;99.90
25923;DHT22;13725;51.170;4.442;2023-07-09T05:09:04;24.30;99.90
25923;DHT22;13725;51.170;4.442;2023-07-09T05:11:33;24.40;99.90
25923;DHT22;13725;51.170;4.442;2023-07-09T05:13:59;24.50;99.90
25923;DHT22;13725;51.170;4.442;2023-07-09T05:16:25;24.60;99.90
25923;DHT22;13725;51.170;4.442;2023-07-09T05:18:52;24.70;99.90
25923;DHT22;13725;51.170;4.442;2023-07-09T05:21:18;24.80;99.90
25923;DHT22;13725;51.170;4.442;2023-07-09T05:23:44;24.90;99.90
25923;DHT22;13725;51.170;4.442;2023-07-09T05:26:10;25.00;99.90
25923;DHT22;13725;51.170;4.442;2023-07-09T05:28:36;25.10;99.90
25923;DHT22;13725;51.170;4.442;2023-07-09T05:31:02;25.20;99.90
25923;DHT22;13725;51.170;4.442;2023-07-09T05:33:29;25.40;99.90
25923;DHT22;13725;51.170;4.442;2023-07-09T05:35:54;25.50;99.90
25923;DHT22;13725;51.170;4.442;2023-07-09T05:38:21;25.50;99.90
25923;DHT22;13725;51.170;4.442;2023-07-09T05:41:01;25.60;99.90
25923;DHT22;13725;51.170;4.442;2023-07-09T05:43:28;25.70;99.90
25923;DHT22;13725;51.170;4.442;2023-07-09T05:45:54;25.80;99.90
25923;DHT22;13725;51.170;4.442;2023-07-09T05:48:19;25.90;99.90
25923;DHT22;13725;51.170;4.442;2023-07-09T05:50:45;26.10;99.90
25923;DHT22;13725;51.170;4.442;2023-07-09T05:53:11;26.20;99.90
25923;DHT22;13725;51.170;4.442;2023-07-09T05:55:36;26.30;99.90
25923;DHT22;13725;51.170;4.442;2023-07-09T05:58:02;26.40;99.90
25923;DHT22;13725;51.170;4.442;2023-07-09T06:00:28;26.60;99.90
25923;DHT22;13725;51.170;4.442;2023-07-09T06:02:54;26.80;99.90
25923;DHT22;13725;51.170;4.442;2023-07-09T06:05:19;26.90;99.90
25923;DHT22;13725;51.170;4.442;2023-07-09T06:07:46;27.10;99.90
25923;DHT22;13725;51.170;4.442;2023-07-09T06:10:12;27.20;99.90
25923;DHT22;13725;51.170;4.442;2023-07-09T06:12:39;27.40;99.90
25923;DHT22;13725;51.170;4.442;2023-07-09T06:15:06;27.60;99.90
25923;DHT22;13725;51.170;4.442;2023-07-09T06:17:32;27.90;99.90
25923;DHT22;13725;51.170;4.442;2023-07-09T06:19:57;28.10;99.90
25923;DHT22;13725;51.170;4.442;2023-07-09T06:22:23;28.60;99.90
25923;DHT22;13725;51.170;4.442;2023-07-09T06:24:49;29.50;99.90
25923;DHT22;13725;51.170;4.442;2023-07-09T06:27:15;30.80;99.90
25923;DHT22;13725;51.170;4.442;2023-07-09T06:29:40;32.10;99.90
25923;DHT22;13725;51.170;4.442;2023-07-09T06:32:06;33.10;99.90
25923;DHT22;13725;51.170;4.442;2023-07-09T06:34:32;34.00;99.90
25923;DHT22;13725;51.170;4.442;2023-07-09T06:36:58;34.80;99.90
25923;DHT22;13725;51.170;4.442;2023-07-09T06:39:23;35.50;99.90
25923;DHT22;13725;51.170;4.442;2023-07-09T06:41:49;36.00;99.90
25923;DHT22;13725;51.170;4.442;2023-07-09T06:44:50;36.40;99.90
25923;DHT22;13725;51.170;4.442;2023-07-09T06:47:16;36.80;99.90
25923;DHT22;13725;51.170;4.442;2023-07-09T06:49:41;37.20;99.90
25923;DHT22;13725;51.170;4.442;2023-07-09T06:52:07;37.60;99.90
25923;DHT22;13725;51.170;4.442;2023-07-09T06:54:33;38.00;99.20
25923;DHT22;13725;51.170;4.442;2023-07-09T06:56:59;38.40;97.60
25923;DHT22;13725;51.170;4.442;2023-07-09T06:59:24;38.60;95.50
25923;DHT22;13725;51.170;4.442;2023-07-09T07:01:50;38.90;94.70
25923;DHT22;13725;51.170;4.442;2023-07-09T07:04:16;39.20;93.80
25923;DHT22;13725;51.170;4.442;2023-07-09T07:06:41;39.40;92.90
25923;DHT22;13725;51.170;4.442;2023-07-09T07:09:07;39.70;91.90
25923;DHT22;13725;51.170;4.442;2023-07-09T07:11:34;40.00;91.10
25923;DHT22;13725;51.170;4.442;2023-07-09T07:13:59;40.30;90.40
25923;DHT22;13725;51.170;4.442;2023-07-09T07:16:25;40.60;89.10
25923;DHT22;13725;51.170;4.442;2023-07-09T07:18:51;40.80;87.20
25923;DHT22;13725;51.170;4.442;2023-07-09T07:21:17;41.10;85.60
25923;DHT22;13725;51.170;4.442;2023-07-09T07:23:42;41.10;84.70
25923;DHT22;13725;51.170;4.442;2023-07-09T07:26:08;41.30;84.60
25923;DHT22;13725;51.170;4.442;2023-07-09T07:28:37;41.40;83.30
25923;DHT22;13725;51.170;4.442;2023-07-09T07:31:06;41.50;83.40
25923;DHT22;13725;51.170;4.442;2023-07-09T07:33:35;41.50;82.60
25923;DHT22;13725;51.170;4.442;2023-07-09T07:36:04;41.70;82.50
25923;DHT22;13725;51.170;4.442;2023-07-09T07:38:30;41.70;81.30
25923;DHT22;13725;51.170;4.442;2023-07-09T07:40:56;41.90;80.50
25923;DHT22;13725;51.170;4.442;2023-07-09T07:43:22;42.00;79.70
25923;DHT22;13725;51.170;4.442;2023-07-09T07:45:49;42.20;79.10
25923;DHT22;13725;51.170;4.442;2023-07-09T07:48:14;42.40;79.40
25923;DHT22;13725;51.170;4.442;2023-07-09T07:50:40;42.70;77.80
25923;DHT22;13725;51.170;4.442;2023-07-09T07:53:07;43.00;76.90
25923;DHT22;13725;51.170;4.442;2023-07-09T07:55:34;43.20;75.60
25923;DHT22;13725;51.170;4.442;2023-07-09T07:57:59;43.20;75.10
25923;DHT22;13725;51.170;4.442;2023-07-09T08:00:28;43.50;74.60
25923;DHT22;13725;51.170;4.442;2023-07-09T08:02:54;43.50;73.90
25923;DHT22;13725;51.170;4.442;2023-07-09T08:05:20;43.50;73.00
25923;DHT22;13725;51.170;4.442;2023-07-09T08:07:45;43.40;72.30
25923;DHT22;13725;51.170;4.442;2023-07-09T08:10:11;43.70;71.80
25923;DHT22;13725;51.170;4.442;2023-07-09T08:12:38;44.10;70.80
25923;DHT22;13725;51.170;4.442;2023-07-09T08:15:04;44.20;69.40
25923;DHT22;13725;51.170;4.442;2023-07-09T08:17:31;44.20;68.30
25923;DHT22;13725;51.170;4.442;2023-07-09T08:19:57;44.40;67.70
25923;DHT22;13725;51.170;4.442;2023-07-09T08:22:23;44.60;66.90
25923;DHT22;13725;51.170;4.442;2023-07-09T08:24:49;44.80;65.90
25923;DHT22;13725;51.170;4.442;2023-07-09T08:27:15;44.70;65.20
25923;DHT22;13725;51.170;4.442;2023-07-09T08:29:41;44.80;65.30
25923;DHT22;13725;51.170;4.442;2023-07-09T08:32:09;44.50;64.50
25923;DHT22;13725;51.170;4.442;2023-07-09T08:34:35;44.80;64.70
25923;DHT22;13725;51.170;4.442;2023-07-09T08:37:01;45.20;64.80
25923;DHT22;13725;51.170;4.442;2023-07-09T08:39:27;45.50;63.60
25923;DHT22;13725;51.170;4.442;2023-07-09T08:42:11;45.80;62.80
25923;DHT22;13725;51.170;4.442;2023-07-09T08:45:00;46.20;62.50
25923;DHT22;13725;51.170;4.442;2023-07-09T08:47:47;46.40;61.20
25923;DHT22;13725;51.170;4.442;2023-07-09T08:50:23;46.70;61.20
25923;DHT22;13725;51.170;4.442;2023-07-09T08:52:51;47.20;60.40
25923;DHT22;13725;51.170;4.442;2023-07-09T08:55:21;47.40;59.70
25923;DHT22;13725;51.170;4.442;2023-07-09T08:57:49;47.50;59.30
25923;DHT22;13725;51.170;4.442;2023-07-09T09:00:27;47.60;58.60
25923;DHT22;13725;51.170;4.442;2023-07-09T09:03:08;47.70;58.70
25923;DHT22;13725;51.170;4.442;2023-07-09T09:05:41;47.80;58.50
25923;DHT22;13725;51.170;4.442;2023-07-09T09:08:38;47.70;58.50
25923;DHT22;13725;51.170;4.442;2023-07-09T09:11:07;47.40;58.30
25923;DHT22;13725;51.170;4.442;2023-07-09T09:13:37;46.60;57.80
25923;DHT22;13725;51.170;4.442;2023-07-09T09:16:10;46.20;58.70
25923;DHT22;13725;51.170;4.442;2023-07-09T09:18:42;46.30;58.30
25923;DHT22;13725;51.170;4.442;2023-07-09T09:21:24;46.40;58.60
25923;DHT22;13725;51.170;4.442;2023-07-09T09:23:56;46.50;58.70
25923;DHT22;13725;51.170;4.442;2023-07-09T09:26:32;46.90;58.40
25923;DHT22;13725;51.170;4.442;2023-07-09T09:28:59;47.00;57.80
25923;DHT22;13725;51.170;4.442;2023-07-09T09:31:29;47.30;58.10
25923;DHT22;13725;51.170;4.442;2023-07-09T09:33:56;47.70;57.10
25923;DHT22;13725;51.170;4.442;2023-07-09T09:36:25;47.80;57.30
25923;DHT22;13725;51.170;4.442;2023-07-09T09:38:52;47.90;57.60
25923;DHT22;13725;51.170;4.442;2023-07-09T09:41:23;47.70;56.80
25923;DHT22;13725;51.170;4.442;2023-07-09T09:43:52;47.60;56.80
25923;DHT22;13725;51.170;4.442;2023-07-09T09:46:21;46.80;57.40
25923;DHT22;13725;51.170;4.442;2023-07-09T09:48:48;45.90;58.00
25923;DHT22;13725;51.170;4.442;2023-07-09T09:51:16;45.80;58.60
25923;DHT22;13725;51.170;4.442;2023-07-09T09:53:47;46.30;57.80
25923;DHT22;13725;51.170;4.442;2023-07-09T09:56:34;46.90;57.50
25923;DHT22;13725;51.170;4.442;2023-07-09T09:59:02;47.00;57.30
25923;DHT22;13725;51.170;4.442;2023-07-09T10:01:34;47.20;57.20
25923;DHT22;13725;51.170;4.442;2023-07-09T10:04:01;47.20;57.40
25923;DHT22;13725;51.170;4.442;2023-07-09T10:06:37;47.00;57.40
25923;DHT22;13725;51.170;4.442;2023-07-09T10:09:23;46.40;57.50
25923;DHT22;13725;51.170;4.442;2023-07-09T10:12:13;46.30;58.20
25923;DHT22;13725;51.170;4.442;2023-07-09T10:14:50;46.70;57.70
25923;DHT22;13725;51.170;4.442;2023-07-09T10:17:37;47.00;57.60
25923;DHT22;13725;51.170;4.442;2023-07-09T10:25:23;45.40;58.80
25923;DHT22;13725;51.170;4.442;2023-07-09T10:28:08;45.20;60.10
25923;DHT22;13725;51.170;4.442;2023-07-09T10:33:55;44.40;59.90
25923;DHT22;13725;51.170;4.442;2023-07-09T10:36:46;44.10;60.50
25923;DHT22;13725;51.170;4.442;2023-07-09T10:39:18;43.20;61.80
25923;DHT22;13725;51.170;4.442;2023-07-09T10:41:46;42.50;62.40
25923;DHT22;13725;51.170;4.442;2023-07-09T10:44:29;41.70;63.20
25923;DHT22;13725;51.170;4.442;2023-07-09T10:47:02;40.90;64.30
25923;DHT22;13725;51.170;4.442;2023-07-09T10:49:39;39.70;65.90
25923;DHT22;13725;51.170;4.442;2023-07-09T10:52:13;38.80;67.00
25923;DHT22;13725;51.170;4.442;2023-07-09T10:54:54;38.10;68.70
25923;DHT22;13725;51.170;4.442;2023-07-09T10:57:38;37.40;70.10
25923;DHT22;13725;51.170;4.442;2023-07-09T11:00:18;36.30;71.90
25923;DHT22;13725;51.170;4.442;2023-07-09T11:02:46;35.80;73.20
25923;DHT22;13725;51.170;4.442;2023-07-09T11:05:13;35.40;74.00
25923;DHT22;13725;51.170;4.442;2023-07-09T11:08:08;35.10;74.70
25923;DHT22;13725;51.170;4.442;2023-07-09T11:10:44;35.00;75.40
25923;DHT22;13725;51.170;4.442;2023-07-09T11:13:13;34.70;76.20
25923;DHT22;13725;51.170;4.442;2023-07-09T11:15:47;34.70;77.00
25923;DHT22;13725;51.170;4.442;2023-07-09T11:18:20;34.80;76.90
25923;DHT22;13725;51.170;4.442;2023-07-09T11:20:56;35.40;76.20
25923;DHT22;13725;51.170;4.442;2023-07-09T11:23:24;36.10;74.80
25923;DHT22;13725;51.170;4.442;2023-07-09T11:28:40;37.80;72.90
25923;DHT22;13725;51.170;4.442;2023-07-09T11:31:36;38.30;71.00
25923;DHT22;13725;51.170;4.442;2023-07-09T11:36:33;38.10;70.00
25923;DHT22;13725;51.170;4.442;2023-07-09T11:39:00;37.80;70.90
25923;DHT22;13725;51.170;4.442;2023-07-09T11:41:42;37.50;71.10
25923;DHT22;13725;51.170;4.442;2023-07-09T11:44:26;37.10;71.40
25923;DHT22;13725;51.170;4.442;2023-07-09T11:49:25;35.90;73.50
25923;DHT22;13725;51.170;4.442;2023-07-09T11:52:00;35.60;74.50
25923;DHT22;13725;51.170;4.442;2023-07-09T11:54:27;35.30;75.30
25923;DHT22;13725;51.170;4.442;2023-07-09T11:56:57;34.80;76.00
25923;DHT22;13725;51.170;4.442;2023-07-09T11:59:23;34.60;77.20
25923;DHT22;13725;51.170;4.442;2023-07-09T12:01:51;34.40;78.50
25923;DHT22;13725;51.170;4.442;2023-07-09T12:04:21;34.00;79.40
25923;DHT22;13725;51.170;4.442;2023-07-09T12:06:57;33.50;80.90
25923;DHT22;13725;51.170;4.442;2023-07-09T12:09:23;32.80;82.80
25923;DHT22;13725;51.170;4.442;2023-07-09T12:11:50;32.60;84.20
25923;DHT22;13725;51.170;4.442;2023-07-09T12:14:19;32.20;85.90
25923;DHT22;13725;51.170;4.442;2023-07-09T12:16:50;32.00;87.60
25923;DHT22;13725;51.170;4.442;2023-07-09T12:19:19;31.80;89.80
25923;DHT22;13725;51.170;4.442;2023-07-09T12:21:48;31.50;90.60
25923;DHT22;13725;51.170;4.442;2023-07-09T12:24:26;31.30;91.70
25923;DHT22;13725;51.170;4.442;2023-07-09T12:26:59;31.10;92.60
25923;DHT22;13725;51.170;4.442;2023-07-09T12:29:26;31.00;93.60
25923;DHT22;13725;51.170;4.442;2023-07-09T12:31:52;30.90;94.60
25923;DHT22;13725;51.170;4.442;2023-07-09T12:34:18;30.70;95.60
25923;DHT22;13725;51.170;4.442;2023-07-09T12:36:48;30.50;97.00
25923;DHT22;13725;51.170;4.442;2023-07-09T12:39:19;30.40;97.80
25923;DHT22;13725;51.170;4.442;2023-07-09T12:41:48;30.20;98.80
25923;DHT22;13725;51.170;4.442;2023-07-09T12:44:19;30.10;99.90
25923;DHT22;13725;51.170;4.442;2023-07-09T12:46:46;29.90;99.90
25923;DHT22;13725;51.170;4.442;2023-07-09T12:49:28;29.70;99.90
25923;DHT22;13725;51.170;4.442;2023-07-09T12:51:58;29.50;99.90
25923;DHT22;13725;51.170;4.442;2023-07-09T12:54:28;29.20;99.90
25923;DHT22;13725;51.170;4.442;2023-07-09T12:56:55;29.00;99.90
25923;DHT22;13725;51.170;4.442;2023-07-09T12:59:37;28.90;99.90
25923;DHT22;13725;51.170;4.442;2023-07-09T13:02:25;28.70;99.90
25923;DHT22;13725;51.170;4.442;2023-07-09T13:05:01;27.90;99.90
25923;DHT22;13725;51.170;4.442;2023-07-09T13:07:32;26.90;99.90
25923;DHT22;13725;51.170;4.442;2023-07-09T13:12:38;25.60;99.90
25923;DHT22;13725;51.170;4.442;2023-07-09T13:15:05;25.30;99.90
25923;DHT22;13725;51.170;4.442;2023-07-09T13:17:32;25.00;99.90
25923;DHT22;13725;51.170;4.442;2023-07-09T13:19:58;24.80;99.90
25923;DHT22;13725;51.170;4.442;2023-07-09T13:22:27;24.70;99.90
25923;DHT22;13725;51.170;4.442;2023-07-09T13:24:53;24.40;99.90
25923;DHT22;13725;51.170;4.442;2023-07-09T13:27:19;24.30;99.90
25923;DHT22;13725;51.170;4.442;2023-07-09T13:29:45;24.10;99.90
25923;DHT22;13725;51.170;4.442;2023-07-09T13:32:14;24.00;99.90
25923;DHT22;13725;51.170;4.442;2023-07-09T13:34:40;24.00;99.90
25923;DHT22;13725;51.170;4.442;2023-07-09T13:37:12;23.90;99.90
25923;DHT22;13725;51.170;4.442;2023-07-09T13:39:38;24.00;99.90
25923;DHT22;13725;51.170;4.442;2023-07-09T13:42:10;24.10;99.90
25923;DHT22;13725;51.170;4.442;2023-07-09T13:44:35;24.20;99.90
25923;DHT22;13725;51.170;4.442;2023-07-09T13:47:01;24.20;99.90
25923;DHT22;13725;51.170;4.442;2023-07-09T13:49:27;24.10;99.90
25923;DHT22;13725;51.170;4.442;2023-07-09T13:51:56;24.00;99.90
25923;DHT22;13725;51.170;4.442;2023-07-09T13:56:48;23.80;99.90
25923;DHT22;13725;51.170;4.442;2023-07-09T13:59:20;24.00;99.90
25923;DHT22;13725;51.170;4.442;2023-07-09T14:01:49;24.10;99.90
25923;DHT22;13725;51.170;4.442;2023-07-09T14:04:16;24.20;99.90
25923;DHT22;13725;51.170;4.442;2023-07-09T14:06:43;24.10;99.90
25923;DHT22;13725;51.170;4.442;2023-07-09T14:09:10;24.30;99.90
25923;DHT22;13725;51.170;4.442;2023-07-09T14:11:58;24.50;99.90
25923;DHT22;13725;51.170;4.442;2023-07-09T14:14:28;25.20;99.90
25923;DHT22;13725;51.170;4.442;2023-07-09T14:16:56;25.50;99.90
25923;DHT22;13725;51.170;4.442;2023-07-09T14:19:24;26.00;99.90
25923;DHT22;13725;51.170;4.442;2023-07-09T14:21:51;26.30;99.90
25923;DHT22;13725;51.170;4.442;2023-07-09T14:24:35;26.70;99.90
25923;DHT22;13725;51.170;4.442;2023-07-09T14:27:01;27.30;99.90
25923;DHT22;13725;51.170;4.442;2023-07-09T14:29:26;27.60;99.90
25923;DHT22;13725;51.170;4.442;2023-07-09T14:31:52;27.90;99.90
25923;DHT22;13725;51.170;4.442;2023-07-09T14:34:22;28.20;99.90
25923;DHT22;13725;51.170;4.442;2023-07-09T14:36:50;28.40;99.90
25923;DHT22;13725;51.170;4.442;2023-07-09T14:39:17;28.80;99.90
25923;DHT22;13725;51.170;4.442;2023-07-09T14:41:44;29.10;99.90
25923;DHT22;13725;51.170;4.442;2023-07-09T14:46:49;29.50;99.90
25923;DHT22;13725;51.170;4.442;2023-07-09T14:49:19;29.30;99.90
25923;DHT22;13725;51.170;4.442;2023-07-09T14:51:51;29.30;99.90
25923;DHT22;13725;51.170;4.442;2023-07-09T14:54:22;29.30;99.90
25923;DHT22;13725;51.170;4.442;2023-07-09T14:56:49;29.20;99.90
25923;DHT22;13725;51.170;4.442;2023-07-09T14:59:15;29.20;99.90
25923;DHT22;13725;51.170;4.442;2023-07-09T15:01:47;29.20;99.90
25923;DHT22;13725;51.170;4.442;2023-07-09T15:06:50;29.10;99.90
25923;DHT22;13725;51.170;4.442;2023-07-09T15:09:16;29.00;99.90
25923;DHT22;13725;51.170;4.442;2023-07-09T15:11:46;28.70;99.90
25923;DHT22;13725;51.170;4.442;2023-07-09T15:14:12;28.50;99.90
25923;DHT22;13725;51.170;4.442;2023-07-09T15:16:38;28.60;99.90
25923;DHT22;13725;51.170;4.442;2023-07-09T15:19:16;28.60;99.90
25923;DHT22;13725;51.170;4.442;2023-07-09T15:21:56;28.80;99.90
25923;DHT22;13725;51.170;4.442;2023-07-09T15:24:34;29.00;99.90
25923;DHT22;13725;51.170;4.442;2023-07-09T15:27:00;29.20;99.90
25923;DHT22;13725;51.170;4.442;2023-07-09T15:29:28;29.30;99.90
25923;DHT22;13725;51.170;4.442;2023-07-09T15:32:00;29.40;99.90
25923;DHT22;13725;51.170;4.442;2023-07-09T15:34:26;29.40;99.90
25923;DHT22;13725;51.170;4.442;2023-07-09T15:36:52;29.30;99.90
25923;DHT22;13725;51.170;4.442;2023-07-09T15:39:20;29.20;99.90
25923;DHT22;13725;51.170;4.442;2023-07-09T15:41:52;29.00;99.90
25923;DHT22;13725;51.170;4.442;2023-07-09T15:44:18;29.00;99.90
25923;DHT22;13725;51.170;4.442;2023-07-09T15:46:55;28.90;99.90
25923;DHT22;13725;51.170;4.442;2023-07-09T15:49:22;28.80;99.90
25923;DHT22;13725;51.170;4.442;2023-07-09T15:51:48;29.00;99.90
25923;DHT22;13725;51.170;4.442;2023-07-09T15:54:16;29.00;99.90
25923;DHT22;13725;51.170;4.442;2023-07-09T15:56:43;28.80;99.90
25923;DHT22;13725;51.170;4.442;2023-07-09T15:59:35;28.60;99.90
25923;DHT22;13725;51.170;4.442;2023-07-09T16:02:08;28.50;99.90
25923;DHT22;13725;51.170;4.442;2023-07-09T16:04:34;28.50;99.90
25923;DHT22;13725;51.170;4.442;2023-07-09T16:07:00;28.30;99.90
25923;DHT22;13725;51.170;4.442;2023-07-09T16:09:26;28.10;99.90
25923;DHT22;13725;51.170;4.442;2023-07-09T16:11:53;28.00;99.90